Airfield :
LOGIN :

Register | Disclaimer

   EN    FR    IT 

 










Legend :    VFR   Marginal VFR   IFR   Intensive IFR   Very Intensive IFR
Visi :
Ceiling :
>= 8 km
>= 3000ft
5 to 8 km
1000 to 3000 ft
1500m to 5 km
500 to 1000 ft
800 to 1500m
200 to 500 ft
< 800m
< 200 ft
Symbols :   Thunderstorms  Fog  Heavy snow  Heavy precipitations  Wind > 20 kt
SIGMETs :     Misc.  Thunderstorms  Icing  Turbulence  Mountain Waves  Volcanic Ashes







- Airport Elevation : 75 ft
- IATA code : MRH


EGYM - RAF Marham

CURRENT METAR :
  • 141950Z 19009KT 9999 FEW045 01/M00 Q0986 BLU

EXPIRED METARs :
  • 141850Z 21009KT CAVOK 02/00 Q0986 BLU
  • 141750Z AUTO 21010KT 9999 NCD 02/00 Q0986

TAF TAF EGYM
Valid from the 14 at 15:00 until the 15 at 00:00 UTC


141343Z 1415/1424 23012KT 9999 FEW018 SCT028
TEMPO 1415/1417 SCT018
TEMPO 1420/1424 SCT018
PROB40
TEMPO 1421/1424 8000 HZ SCT009 BKN018
No reported NOTAMs for that airfield.
1 SIGMET reported for the London FIR (EGTT) :
 
Severe turbulence
EGTT SIGMET 05 VALID 141900/142300 EGRR
EGTT LONDON FIR SEV TURB FCST SW OF LINE N5000 W00149 - N5152 W00623 SFC/FL060 STNR WKN=



MET'MAP, your aeronautical weather chart ! - Copyright ORBIFLY December 2007 - Disclaimer

ORBIFLY MET'MAP TEAM :

Programming & Development : Alexandra Zaïnal
Concept & Development : Baudouin d'Aumeries
Co-Development & Prog : Marc-Olivier Méhu
Technical & hardware support : Manuel Goepfert

Contact : metmap@orbifly.com




SOURCES & CREDITS :

   NOAA